Terminal Aerodrome Forecast
Issued by NWS Cleveland, OH

Home | Current Version | Previous Version | Text Only | Print | Product List | Glossary Off
Versions: 1 2 3 4 5 6 7 8 9 10 11 12 13 14 15 16 17 18 19 20 21 22 23 24 25 26

000
FTUS41 KCLE 221724
TAFMFD
TAF
KMFD 221724Z 2218/2318 04011KT 5SM BR OVC010
      TEMPO 2218/2219 BKN007
     FM222100 07012KT P6SM BKN015
     FM230000 10009KT P6SM OVC007
     FM231000 14008KT 4SM -RA OVC003=

USA.gov is the U.S. government's official web portal to all federal, state and local government web resources and services.